• Join FlightAware (Why Join?)
  • Login
  • US Flag 
10:07PM EDT


 

Airport Tracker/Info


-or-


 

Live Flight TrackerFlight Track Log ✈ ASQ4908 ✈ 09-May-2013 ✈ KDTW - KMSN

Flight Track Log - Related Links

Times and Time Zones

All times are in EDT time to prevent confusion due to time zone crossing. See the ASQ4908 flight status page for this flight to view local times or setup timezone preferences in your user account.

Time Position Orientation Groundspeed Altitude Reporting Facility
EDT Latitude Longitude Course Direction KTS MPH feet Rate Location/Type
10:29AM 42.1994 -83.3581 229° Southwest 158 182 1,400  Level Cleveland Center
10:30AM 42.1583 -83.4208 229° Southwest 247 284 3,400 2,340 Climbing Cleveland Center
10:31AM 42.1086 -83.4942 228° Southwest 270 311 6,400 3,000 Climbing Cleveland Center
10:32AM 42.1289 -83.5903 286° West 274 315 9,500 2,400 Climbing Cleveland Center
10:33AM 42.1706 -83.6706 305° West 305 351 11,000 2,340 Climbing Cleveland Center
10:34AM 42.2222 -83.7714 305° West 315 362 14,000 2,220 Climbing Cleveland Center
10:35AM 42.2669 -83.8803 299° West 315 362 15,500 1,560 Climbing Cleveland Center
10:36AM 42.3028 -84.0114 290° West 343 395 17,200 1,800 Climbing Cleveland Center
10:37AM 42.3406 -84.1425 291° West 369 425 19,100 1,860 Climbing Cleveland Center
10:38AM 42.3756 -84.2822 289° West 383 441 21,000 1,860 Climbing Cleveland Center
10:39AM 42.4131 -84.4167 291° West 389 448 22,900 1,740 Climbing Cleveland Center
10:40AM 42.4414 -84.5647 285° West 394 453 24,500 1,440 Climbing Cleveland Center
10:41AM 42.4414 -84.7417 270° West 400 460 26,100 1,260 Climbing Chicago Center
10:42AM 42.4461 -84.8964 272° West 410 472 27,400 1,140 Climbing Chicago Center
10:43AM 42.4486 -85.0525 271° West 414 476 28,500 960 Climbing Chicago Center
10:44AM 42.4519 -85.2100 272° West 419 482 29,500 720 Climbing Chicago Center
10:45AM 42.4550 -85.3708 272° West 425 489 30,000  Climbing Chicago Center
10:46AM 42.4578 -85.5339 271° West 431 496 29,500 -960 Descending Chicago Center
10:47AM 42.4828 -85.6939 282° West 435 501 28,100 -780 Descending Chicago Center
10:48AM 42.5211 -85.8828 285° West 433 498 28,000 -60 Descending Chicago Center
10:49AM 42.5511 -86.0386 285° West 427 491 28,000  Level Chicago Center
10:50AM 42.5814 -86.1967 285° West 431 496 28,000  Level Chicago Center
10:51AM 42.6111 -86.3506 285° West 422 486 28,000  Level Chicago Center
10:52AM 42.6397 -86.5053 284° West 421 484 28,000  Level Chicago Center
10:53AM 42.6700 -86.6617 285° West 427 491 28,000  Level Chicago Center
10:54AM 42.6978 -86.8164 284° West 422 486 28,000  Level Chicago Center
10:55AM 42.7261 -86.9692 284° West 414 476 28,000  Level Chicago Center
10:56AM 42.7611 -87.1544 284° West 420 483 28,000  Level Chicago Center
10:57AM 42.7886 -87.3092 284° West 421 484 28,000 -1,080 Level Chicago Center
10:58AM 42.8183 -87.4639 285° West 427 491 25,800 -1,920 Descending Chicago Center
10:59AM 42.8467 -87.6192 284° West 423 487 24,100 -1,200 Descending Chicago Center
11:00AM 42.8750 -87.7775 284° West 427 491 23,400 -1,320 Descending Chicago Center
11:02AM 42.9017 -87.9300 283° West 418 481 21,400 -2,160 Descending Chicago Center
11:03AM 42.9325 -88.1111 283° West 419 482 19,000 -2,160 Descending Chicago Center
11:04AM 42.9586 -88.2622 283° West 408 470 17,000 -1,980 Descending Chicago Center
11:05AM 42.9833 -88.4056 283° West 390 449 15,000 -1,500 Descending Chicago Center
11:06AM 43.0078 -88.5478 283° West 384 442 14,000 -1,140 Descending Chicago Center
11:07AM 43.0333 -88.6908 284° West 385 443 12,700 -1,560 Descending Chicago Center
11:08AM 43.0744 -88.8233 293° West 373 429 10,900 -1,620 Descending Chicago Center
11:09AM 43.1119 -88.9294 296° West 312 359 9,400 -1,860 Descending Chicago Center
11:10AM 43.1475 -89.0281 296° West 290 334 7,100 -2,160 Descending Chicago Center
11:11AM 43.2061 -89.1161 312° West 285 328 5,000 -1,320 Descending Chicago Center
11:12AM 43.2769 -89.1572 337° Northwest 279 321 4,400 -720 Descending Chicago Center
11:13AM 43.3275 -89.2228 317° Northwest 276 318 3,600 -720 Descending Chicago Center
11:14AM 43.2992 -89.3047 245° Southwest 260 299 3,000 -420 Descending Chicago Center
11:15AM 43.2442 -89.3342 201° Southwest 228 262 2,800 -540 Descending Chicago Center
11:16AM 43.2006 -89.3400 186° South 185 213 2,000 -840 Descending Chicago Center
11:17AM 43.1592 -89.3408 181° South 145 167 1,100 -540 Descending Chicago Center
11:18AM 43.1247 -89.3417 181° South 142 163 1,000 -120 Descending Chicago Center